Time;durP1;ratioP1;P1;durP2;ratioP2;P2;SDS_P1;SDS_P2;PMS_P1;PMS_P2;Temp;Humidity;BMP_temperature;BMP_pressure;BME280_temperature;BME280_humidity;BME280_pressure;Samples;Min_cycle;Max_cycle;Signal;HPM_P1;HPM_P2
2021/04/05 00:00:09;;;;;;;8.07;7.77;;;20.90;94.70;;;;;;3617983;39;20509;-34
2021/04/05 00:02:36;;;;;;;7.83;7.63;;;21.00;94.80;;;;;;3617331;39;20481;-34
2021/04/05 00:05:07;;;;;;;8.27;8.03;;;21.00;94.70;;;;;;3618938;39;20846;-34
2021/04/05 00:07:34;;;;;;;7.90;7.70;;;20.90;94.70;;;;;;3616680;39;20505;-34
2021/04/05 00:10:00;;;;;;;7.90;7.67;;;21.00;94.80;;;;;;3616929;39;20624;-34
2021/04/05 00:12:27;;;;;;;8.20;7.90;;;20.90;94.70;;;;;;3617902;39;20465;-34
2021/04/05 00:14:54;;;;;;;8.03;7.73;;;20.90;94.70;;;;;;3617594;39;20501;-35
2021/04/05 00:17:20;;;;;;;7.60;7.40;;;21.00;94.80;;;;;;3617191;39;20724;-35
2021/04/05 00:19:48;;;;;;;7.83;7.60;;;21.00;94.80;;;;;;3616571;39;20481;-34
2021/04/05 00:22:15;;;;;;;7.67;7.47;;;20.90;94.70;;;;;;3617200;39;20473;-33
2021/04/05 00:24:42;;;;;;;8.10;7.90;;;20.90;94.70;;;;;;3617645;39;20474;-34
2021/04/05 00:27:08;;;;;;;7.60;7.40;;;21.00;94.70;;;;;;3617789;39;20493;-35
2021/04/05 00:29:35;;;;;;;7.60;7.40;;;21.00;94.70;;;;;;3616210;39;20539;-34
2021/04/05 00:32:03;;;;;;;8.00;7.80;;;21.00;94.70;;;;;;3616779;39;20513;-35
2021/04/05 00:34:37;;;;;;;7.93;7.73;;;20.90;94.70;;;;;;3617427;39;20807;-34
2021/04/05 00:37:04;;;;;;;7.77;7.57;;;20.90;94.70;;;;;;3617206;39;20864;-34
2021/04/05 00:39:32;;;;;;;8.20;7.90;;;20.90;94.70;;;;;;3616925;39;20565;-34
2021/04/05 00:41:59;;;;;;;7.67;7.47;;;20.90;94.70;;;;;;3617934;39;20503;-34
2021/04/05 00:44:29;;;;;;;8.13;7.83;;;20.90;94.70;;;;;;3617194;39;20474;-34
2021/04/05 00:46:56;;;;;;;7.93;7.73;;;20.90;94.70;;;;;;3616715;39;20469;-35
2021/04/05 00:49:23;;;;;;;8.03;7.83;;;20.90;94.70;;;;;;3617204;39;20767;-35
2021/04/05 00:51:50;;;;;;;7.57;7.37;;;20.90;94.70;;;;;;3616638;39;20474;-34
2021/04/05 00:54:17;;;;;;;7.70;7.50;;;20.90;94.70;;;;;;3617051;39;20472;-34
2021/04/05 00:56:44;;;;;;;7.80;7.60;;;20.90;94.70;;;;;;3616857;39;20480;-34
2021/04/05 00:59:11;;;;;;;8.13;7.93;;;20.90;94.70;;;;;;3617032;39;20528;-34
2021/04/05 01:01:38;;;;;;;7.90;7.70;;;20.90;94.70;;;;;;3616019;39;20477;-34
2021/04/05 01:04:05;;;;;;;8.30;8.00;;;20.90;94.70;;;;;;3616400;39;20482;-34
2021/04/05 01:06:33;;;;;;;7.40;7.20;;;20.90;94.70;;;;;;3616726;39;20798;-34
2021/04/05 01:09:00;;;;;;;8.20;7.90;;;20.90;94.70;;;;;;3617089;39;20662;-35
2021/04/05 01:11:28;;;;;;;7.73;7.53;;;20.90;94.70;;;;;;3616457;39;20474;-35
2021/04/05 01:13:57;;;;;;;7.90;7.60;;;20.90;94.70;;;;;;3616386;39;20512;-34
2021/04/05 01:16:25;;;;;;;7.50;7.30;;;20.90;94.70;;;;;;3617616;39;20491;-34
2021/04/05 01:18:52;;;;;;;8.03;7.83;;;20.90;94.70;;;;;;3617425;39;20849;-34
2021/04/05 01:21:19;;;;;;;7.63;7.43;;;20.90;94.70;;;;;;3617294;39;20489;-34
2021/04/05 01:23:47;;;;;;;8.00;7.80;;;20.90;94.70;;;;;;3616738;39;20498;-34
2021/04/05 01:26:15;;;;;;;7.93;7.67;;;20.90;94.70;;;;;;3617143;39;20501;-34
2021/04/05 01:28:42;;;;;;;8.53;8.23;;;20.90;94.70;;;;;;3617278;39;20478;-34
2021/04/05 01:31:10;;;;;;;8.17;7.93;;;20.90;94.70;;;;;;3617590;39;20988;-34
2021/04/05 01:33:37;;;;;;;7.90;7.60;;;20.90;94.70;;;;;;3618607;39;20586;-35
2021/04/05 01:36:07;;;;;;;7.73;7.53;;;20.90;94.70;;;;;;3619403;39;20850;-33
2021/04/05 01:38:37;;;;;;;8.17;7.90;;;20.90;94.70;;;;;;3617712;39;21081;-34
2021/04/05 01:41:06;;;;;;;8.07;7.87;;;20.90;94.70;;;;;;3618201;39;20839;-35
2021/04/05 01:43:33;;;;;;;8.00;7.80;;;20.90;94.70;;;;;;3619142;39;20577;-35
2021/04/05 01:46:01;;;;;;;7.70;7.50;;;20.90;94.70;;;;;;3619304;39;20775;-35
2021/04/05 01:48:29;;;;;;;7.90;7.70;;;20.90;94.70;;;;;;3617544;39;20687;-35
2021/04/05 01:51:00;;;;;;;7.67;7.47;;;20.90;94.70;;;;;;3617753;39;20512;-34
2021/04/05 01:53:27;;;;;;;8.03;7.83;;;20.90;94.70;;;;;;3618779;39;20473;-34
2021/04/05 01:55:58;;;;;;;7.90;7.60;;;20.90;94.70;;;;;;3618707;39;20504;-34
2021/04/05 01:58:26;;;;;;;7.70;7.50;;;20.90;94.70;;;;;;3618118;39;20473;-34
2021/04/05 02:00:53;;;;;;;8.03;7.77;;;20.90;94.70;;;;;;3617834;39;20566;-34
2021/04/05 02:03:21;;;;;;;8.17;7.83;;;20.90;94.70;;;;;;3618817;39;20481;-34
2021/04/05 02:05:51;;;;;;;8.03;7.83;;;20.90;94.70;;;;;;3619160;39;20882;-34
2021/04/05 02:08:22;;;;;;;8.10;7.83;;;20.90;94.70;;;;;;3617709;39;20486;-34
2021/04/05 02:10:49;;;;;;;8.27;8.00;;;20.90;94.70;;;;;;3617406;39;20558;-34
2021/04/05 02:13:18;;;;;;;8.57;8.37;;;20.90;94.70;;;;;;3619253;39;20492;-34
2021/04/05 02:15:46;;;;;;;8.63;8.33;;;20.90;94.70;;;;;;3618415;39;20858;-34
2021/04/05 02:18:13;;;;;;;8.17;7.97;;;20.90;94.70;;;;;;3617354;39;20474;-35
2021/04/05 02:20:40;;;;;;;8.47;8.17;;;20.90;94.70;;;;;;3618378;39;20478;-34
2021/04/05 02:23:08;;;;;;;8.40;8.10;;;20.90;94.70;;;;;;3618675;39;20541;-34
2021/04/05 02:25:35;;;;;;;8.10;7.90;;;20.90;94.70;;;;;;3618195;39;20561;-33
2021/04/05 02:28:04;;;;;;;8.20;8.00;;;20.90;94.70;;;;;;3619016;39;20831;-35
2021/04/05 02:30:31;;;;;;;8.60;8.30;;;20.90;94.70;;;;;;3616789;39;20497;-35
2021/04/05 02:33:02;;;;;;;8.30;8.00;;;20.90;94.70;;;;;;3617639;39;20519;-34
2021/04/05 02:35:31;;;;;;;8.00;7.80;;;20.90;94.70;;;;;;3616960;39;20481;-34
2021/04/05 02:37:59;;;;;;;7.90;7.60;;;20.90;94.70;;;;;;3619238;39;20479;-35
2021/04/05 02:40:27;;;;;;;8.10;7.80;;;20.90;94.70;;;;;;3618772;39;20479;-34
2021/04/05 02:42:55;;;;;;;7.57;7.37;;;20.80;94.60;;;;;;3618170;39;20469;-41
2021/04/05 02:45:24;;;;;;;8.00;7.70;;;20.80;94.60;;;;;;3618465;39;20832;-41
2021/04/05 02:47:54;;;;;;;7.70;7.50;;;20.90;94.70;;;;;;3617837;39;20574;-41
2021/04/05 02:50:23;;;;;;;8.47;8.20;;;20.90;94.70;;;;;;3617484;39;20492;-42
2021/04/05 02:52:50;;;;;;;8.67;8.37;;;20.90;94.70;;;;;;3616898;39;20771;-42
2021/04/05 02:55:18;;;;;;;8.30;8.10;;;20.90;94.70;;;;;;3617741;39;20862;-42
2021/04/05 02:57:45;;;;;;;7.97;7.77;;;20.90;94.70;;;;;;3617628;39;20509;-42
2021/04/05 03:00:14;;;;;;;8.33;8.10;;;20.90;94.70;;;;;;3618016;39;20613;-42
2021/04/05 03:02:43;;;;;;;8.20;7.90;;;20.90;94.70;;;;;;3617386;39;20489;-42
2021/04/05 03:05:12;;;;;;;8.03;7.73;;;20.90;94.70;;;;;;3618282;39;20715;-42
2021/04/05 03:07:39;;;;;;;8.33;8.10;;;20.80;94.60;;;;;;3618261;39;20492;-42
2021/04/05 03:10:09;;;;;;;8.37;8.17;;;20.90;94.60;;;;;;3618119;39;20695;-42
2021/04/05 03:12:37;;;;;;;7.90;7.70;;;20.90;94.70;;;;;;3618331;39;20524;-41
2021/04/05 03:15:05;;;;;;;8.27;8.07;;;20.80;94.60;;;;;;3618182;39;20496;-41
2021/04/05 03:17:34;;;;;;;8.60;8.30;;;20.80;94.60;;;;;;3617800;39;20548;-42
2021/04/05 03:20:01;;;;;;;8.00;7.80;;;20.90;94.70;;;;;;3618556;39;20470;-42
2021/04/05 03:22:28;;;;;;;8.00;7.80;;;20.90;94.70;;;;;;3616962;39;20497;-42
2021/04/05 03:24:56;;;;;;;8.10;7.90;;;20.80;94.60;;;;;;3618762;39;20816;-42
2021/04/05 03:27:23;;;;;;;8.00;7.80;;;20.80;94.60;;;;;;3618535;39;20696;-42
2021/04/05 03:29:50;;;;;;;8.37;8.10;;;20.80;94.60;;;;;;3617253;39;20542;-41
2021/04/05 03:32:20;;;;;;;8.30;8.00;;;20.80;94.60;;;;;;3617491;39;20792;-42
2021/04/05 03:34:54;;;;;;;8.57;8.37;;;20.80;94.60;;;;;;3618283;39;20469;-42
2021/04/05 03:37:22;;;;;;;8.60;8.40;;;20.80;94.60;;;;;;3617926;39;20566;-42
2021/04/05 03:39:50;;;;;;;8.40;8.20;;;20.90;94.60;;;;;;3617118;39;20489;-42
2021/04/05 03:42:23;;;;;;;8.40;8.10;;;20.80;94.60;;;;;;3617804;39;20478;-42
2021/04/05 03:44:58;;;;;;;8.43;8.23;;;20.80;94.60;;;;;;3616339;39;20568;-41
2021/04/05 03:47:32;;;;;;;8.60;8.40;;;20.80;94.60;;;;;;3616322;39;20487;-41
2021/04/05 03:50:07;;;;;;;9.07;8.77;;;20.80;94.60;;;;;;3608329;39;20493;-41
2021/04/05 03:52:42;;;;;;;9.20;8.90;;;20.80;94.60;;;;;;3606886;39;20726;-41
2021/04/05 03:55:11;;;;;;;8.57;8.37;;;20.80;94.60;;;;;;3607695;39;20511;-42
2021/04/05 03:57:44;;;;;;;8.37;8.07;;;20.80;94.60;;;;;;3610083;39;20477;-41
2021/04/05 04:00:15;;;;;;;8.87;8.57;;;20.80;94.60;;;;;;3617475;39;20494;-42
2021/04/05 04:02:47;;;;;;;7.90;7.70;;;20.80;94.60;;;;;;3617703;39;20854;-42
2021/04/05 04:05:17;;;;;;;8.20;8.00;;;20.80;94.60;;;;;;3616838;39;20599;-42
2021/04/05 04:07:48;;;;;;;8.57;8.30;;;20.80;94.60;;;;;;3617706;39;20476;-42
2021/04/05 04:10:17;;;;;;;8.60;8.30;;;20.80;94.60;;;;;;3616619;39;20518;-41
2021/04/05 04:12:47;;;;;;;8.77;8.47;;;20.80;94.60;;;;;;3616455;39;20469;-42
2021/04/05 04:15:15;;;;;;;8.47;8.27;;;20.80;94.60;;;;;;3616023;39;20488;-42
2021/04/05 04:17:43;;;;;;;7.93;7.73;;;20.80;94.60;;;;;;3615409;39;20652;-42
2021/04/05 04:20:13;;;;;;;8.20;8.00;;;20.80;94.60;;;;;;3616047;39;20785;-42
2021/04/05 04:22:42;;;;;;;8.70;8.40;;;20.80;94.90;;;;;;3616005;39;20472;-42
2021/04/05 04:25:09;;;;;;;8.77;8.47;;;20.80;94.60;;;;;;3617205;39;20519;-41
2021/04/05 04:27:37;;;;;;;8.30;8.10;;;20.80;94.60;;;;;;3616776;39;20483;-41
2021/04/05 04:30:06;;;;;;;8.30;8.03;;;20.80;94.60;;;;;;3617008;39;20477;-41
2021/04/05 04:32:33;;;;;;;8.43;8.17;;;20.80;94.60;;;;;;3616014;39;20570;-42
2021/04/05 04:35:00;;;;;;;8.80;8.50;;;20.80;94.60;;;;;;3616748;39;20476;-42
2021/04/05 04:37:27;;;;;;;8.93;8.53;;;20.80;94.60;;;;;;3615011;39;20480;-41
2021/04/05 04:39:55;;;;;;;8.87;8.60;;;20.80;94.60;;;;;;3616817;39;20863;-42
2021/04/05 04:42:24;;;;;;;8.00;7.80;;;20.80;94.60;;;;;;3614785;39;20467;-42
2021/04/05 04:44:50;;;;;;;9.10;8.80;;;20.80;94.60;;;;;;3616547;39;20484;-42
2021/04/05 04:47:18;;;;;;;8.73;8.53;;;20.80;94.60;;;;;;3615834;39;20497;-42
2021/04/05 04:49:46;;;;;;;8.47;8.27;;;20.80;94.60;;;;;;3615541;39;20669;-42
2021/04/05 04:52:13;;;;;;;9.03;8.73;;;20.80;94.60;;;;;;3615969;39;20533;-42
2021/04/05 04:54:40;;;;;;;9.27;8.97;;;20.80;94.60;;;;;;3615542;39;20672;-42
2021/04/05 04:57:06;;;;;;;8.50;8.30;;;20.80;94.60;;;;;;3614457;39;20492;-42
2021/04/05 04:59:34;;;;;;;8.90;8.60;;;20.80;94.60;;;;;;3615447;39;20486;-42
2021/04/05 05:02:01;;;;;;;8.33;8.13;;;20.80;94.70;;;;;;3616217;39;20501;-42
2021/04/05 05:04:29;;;;;;;8.77;8.50;;;20.80;94.60;;;;;;3616854;39;20562;-42
2021/04/05 05:06:59;;;;;;;8.20;8.00;;;20.80;94.70;;;;;;3615742;39;20618;-42
2021/04/05 05:09:27;;;;;;;8.70;8.50;;;20.80;94.60;;;;;;3615591;39;20496;-42
2021/04/05 05:11:54;;;;;;;8.20;8.00;;;20.80;94.70;;;;;;3615195;39;20525;-41
2021/04/05 05:14:21;;;;;;;8.70;8.40;;;20.80;94.70;;;;;;3616527;39;20482;-41
2021/04/05 05:16:49;;;;;;;9.10;8.80;;;20.80;94.70;;;;;;3617053;39;20490;-41
2021/04/05 05:19:16;;;;;;;8.57;8.37;;;20.80;94.70;;;;;;3616959;39;20523;-42
2021/04/05 05:21:47;;;;;;;8.57;8.37;;;20.80;94.70;;;;;;3616529;39;20484;-41
2021/04/05 05:24:18;;;;;;;8.60;8.30;;;20.80;94.70;;;;;;3616374;39;20511;-42
2021/04/05 05:26:45;;;;;;;9.00;8.70;;;20.80;94.70;;;;;;3606594;39;20842;-42
2021/04/05 05:29:13;;;;;;;8.87;8.57;;;20.80;94.70;;;;;;3606369;39;20478;-42
2021/04/05 05:31:42;;;;;;;8.77;8.47;;;20.80;94.70;;;;;;3616381;39;20520;-41
2021/04/05 05:34:09;;;;;;;8.80;8.50;;;20.80;94.70;;;;;;3616649;39;20473;-41
2021/04/05 05:36:36;;;;;;;8.60;8.40;;;20.80;94.70;;;;;;3613549;39;20900;-42
2021/04/05 05:39:05;;;;;;;8.87;8.57;;;20.70;94.60;;;;;;3616085;39;20500;-42
2021/04/05 05:41:52;;;;;;;9.10;8.80;;;20.80;94.70;;;;;;3616418;39;20485;-42
2021/04/05 05:44:24;;;;;;;8.40;8.20;;;20.80;94.70;;;;;;3614045;39;20813;-42
2021/04/05 05:46:55;;;;;;;9.10;8.80;;;20.80;94.70;;;;;;3615673;39;20609;-41
2021/04/05 05:49:33;;;;;;;8.60;8.40;;;20.80;94.70;;;;;;3615840;39;20504;-41
2021/04/05 05:52:09;;;;;;;8.50;8.30;;;20.70;94.60;;;;;;3616684;39;20482;-41
2021/04/05 05:55:01;;;;;;;8.43;8.23;;;20.80;94.70;;;;;;3616817;39;20534;-41
2021/04/05 05:57:37;;;;;;;8.30;8.00;;;20.80;94.80;;;;;;3596567;39;20490;-42
2021/04/05 06:00:09;;;;;;;9.13;8.83;;;20.70;94.60;;;;;;3601097;39;20489;-41
2021/04/05 06:02:49;;;;;;;8.00;7.80;;;20.80;94.80;;;;;;3615225;39;20470;-41
2021/04/05 06:05:25;;;;;;;8.70;8.40;;;20.80;94.80;;;;;;3615775;39;20480;-42
2021/04/05 06:08:03;;;;;;;8.30;8.10;;;20.70;94.70;;;;;;3615812;39;20469;-42
2021/04/05 06:10:44;;;;;;;8.40;8.20;;;20.80;94.70;;;;;;3616329;39;20489;-42
2021/04/05 06:13:23;;;;;;;8.10;7.90;;;20.70;94.70;;;;;;3613765;39;20842;-42
2021/04/05 06:15:57;;;;;;;8.40;8.20;;;20.70;94.70;;;;;;3614949;39;20604;-42
2021/04/05 06:18:34;;;;;;;8.10;7.90;;;20.70;94.70;;;;;;3615390;39;20889;-42
2021/04/05 06:21:07;;;;;;;8.10;7.90;;;20.70;94.70;;;;;;3616129;39;20491;-42
2021/04/05 06:23:46;;;;;;;8.37;8.13;;;20.70;94.70;;;;;;3617220;39;20689;-42
2021/04/05 06:26:17;;;;;;;8.00;7.80;;;20.70;94.70;;;;;;3613549;39;20699;-40
2021/04/05 06:28:53;;;;;;;8.50;8.20;;;20.70;94.70;;;;;;3617548;39;20500;-41
2021/04/05 06:31:43;;;;;;;8.40;8.20;;;20.70;94.70;;;;;;3616092;39;20475;-41
2021/04/05 06:34:24;;;;;;;7.83;7.63;;;20.70;94.80;;;;;;3618294;39;20453;-41
2021/04/05 06:37:06;;;;;;;8.23;8.03;;;20.70;94.80;;;;;;3617427;39;20603;-42
2021/04/05 06:39:38;;;;;;;8.10;7.83;;;20.70;94.80;;;;;;3617759;39;20489;-41
2021/04/05 06:42:38;;;;;;;8.33;8.03;;;20.70;94.70;;;;;;3618033;39;20477;-41
2021/04/05 06:45:38;;;;;;;8.23;7.93;;;20.70;94.80;;;;;;3615936;39;20485;-41
2021/04/05 06:48:45;;;;;;;8.40;8.10;;;20.70;94.80;;;;;;3617329;39;20492;-42
2021/04/05 06:51:28;;;;;;;8.60;8.30;;;20.70;94.80;;;;;;3616048;39;20508;-42
2021/04/05 06:54:24;;;;;;;8.30;8.10;;;20.70;94.80;;;;;;3616828;39;20602;-42
2021/04/05 06:57:03;;;;;;;8.57;8.27;;;20.70;94.80;;;;;;3616779;39;20486;-41
2021/04/05 06:59:56;;;;;;;7.97;7.77;;;20.70;94.80;;;;;;3616878;39;21207;-41
2021/04/05 07:02:54;;;;;;;8.10;7.90;;;20.70;94.80;;;;;;3615213;39;20581;-42
2021/04/05 07:05:35;;;;;;;8.40;8.10;;;20.70;94.80;;;;;;3602091;39;20608;-42
2021/04/05 07:08:09;;;;;;;7.90;7.70;;;20.70;95.10;;;;;;3615944;39;20869;-42
2021/04/05 07:10:45;;;;;;;8.00;7.80;;;20.70;94.80;;;;;;3616452;39;20497;-41
2021/04/05 07:13:25;;;;;;;8.50;8.20;;;20.70;94.80;;;;;;3607153;39;20714;-41
2021/04/05 07:16:01;;;;;;;8.30;8.00;;;20.70;94.80;;;;;;3610147;39;20488;-42
2021/04/05 07:18:43;;;;;;;7.90;7.70;;;20.70;94.80;;;;;;3616432;39;20473;-41
2021/04/05 07:21:25;;;;;;;7.90;7.60;;;20.70;94.80;;;;;;3615439;39;20872;-41
2021/04/05 07:24:06;;;;;;;8.13;7.83;;;20.70;94.80;;;;;;3616430;39;20492;-41
2021/04/05 07:26:39;;;;;;;8.03;7.83;;;20.70;94.80;;;;;;3616003;39;20566;-42
2021/04/05 07:29:11;;;;;;;7.80;7.60;;;20.70;94.80;;;;;;3617008;39;20545;-42
2021/04/05 07:31:51;;;;;;;7.70;7.50;;;20.70;94.80;;;;;;3614447;39;20804;-42
2021/04/05 07:34:32;;;;;;;7.90;7.70;;;20.70;94.90;;;;;;3613584;39;20481;-41
2021/04/05 07:37:21;;;;;;;8.00;7.80;;;20.70;94.90;;;;;;3615089;39;20498;-42
2021/04/05 07:39:53;;;;;;;7.80;7.60;;;20.70;94.90;;;;;;3616356;39;20502;-42
2021/04/05 07:42:27;;;;;;;8.07;7.83;;;20.70;94.90;;;;;;3615519;39;20496;-42
2021/04/05 07:45:02;;;;;;;8.00;7.80;;;20.70;94.90;;;;;;3616328;39;20573;-42
2021/04/05 07:47:37;;;;;;;8.23;7.93;;;20.70;94.90;;;;;;3615470;39;20473;-42
2021/04/05 07:50:09;;;;;;;8.73;8.43;;;20.70;94.90;;;;;;3616187;39;20970;-42
2021/04/05 07:52:44;;;;;;;8.30;8.10;;;20.70;94.90;;;;;;3614516;39;20493;-42
2021/04/05 07:55:11;;;;;;;8.70;8.40;;;20.70;94.90;;;;;;3615595;39;20488;-42
2021/04/05 07:57:50;;;;;;;8.40;8.20;;;20.70;94.90;;;;;;3614874;39;20498;-42
2021/04/05 08:00:29;;;;;;;7.50;7.30;;;20.70;94.90;;;;;;3614685;39;20492;-42
2021/04/05 08:03:08;;;;;;;7.93;7.70;;;20.70;94.90;;;;;;3613905;39;20485;-42
2021/04/05 08:05:58;;;;;;;8.30;8.10;;;20.70;94.90;;;;;;3614633;39;20493;-42
2021/04/05 08:08:41;;;;;;;8.20;7.90;;;20.70;94.90;;;;;;3615651;39;20477;-42
2021/04/05 08:11:26;;;;;;;7.90;7.70;;;20.60;94.90;;;;;;3615268;39;20975;-42
2021/04/05 08:14:06;;;;;;;7.80;7.60;;;20.70;94.90;;;;;;3613060;39;20497;-41
2021/04/05 08:16:43;;;;;;;7.73;7.53;;;20.60;94.90;;;;;;3614527;39;20492;-41
2021/04/05 08:19:16;;;;;;;8.00;7.73;;;20.70;95.00;;;;;;3616615;39;20875;-41
2021/04/05 08:21:50;;;;;;;8.23;8.00;;;20.70;94.90;;;;;;3615512;39;20490;-42
2021/04/05 08:24:26;;;;;;;8.23;7.97;;;20.60;94.90;;;;;;3612701;39;20739;-42
2021/04/05 08:27:00;;;;;;;8.60;8.30;;;20.70;95.00;;;;;;3614014;39;20496;-42
2021/04/05 08:29:37;;;;;;;8.00;7.80;;;20.70;94.90;;;;;;3615733;39;21031;-41
2021/04/05 08:32:30;;;;;;;7.93;7.73;;;20.70;95.00;;;;;;3613747;39;20741;-42
2021/04/05 08:35:14;;;;;;;7.90;7.70;;;20.70;95.00;;;;;;3615216;39;20703;-42
2021/04/05 08:37:54;;;;;;;7.73;7.53;;;20.70;95.00;;;;;;3616066;39;20703;-42
2021/04/05 08:40:24;;;;;;;7.77;7.57;;;20.70;95.00;;;;;;3612863;39;20481;-42
2021/04/05 08:42:59;;;;;;;7.53;7.33;;;20.70;95.00;;;;;;3611954;39;20559;-42
2021/04/05 08:45:33;;;;;;;7.90;7.70;;;20.60;94.90;;;;;;3613500;39;20487;-42
2021/04/05 08:48:05;;;;;;;7.87;7.57;;;20.60;94.90;;;;;;3614022;39;20473;-41
2021/04/05 08:50:38;;;;;;;7.50;7.30;;;20.70;95.00;;;;;;3613368;39;20471;-42
2021/04/05 08:53:06;;;;;;;7.60;7.40;;;20.70;95.00;;;;;;3614457;39;20574;-42
2021/04/05 08:55:33;;;;;;;7.53;7.23;;;20.60;94.90;;;;;;3614224;39;20485;-42
2021/04/05 08:58:05;;;;;;;8.00;7.60;;;20.70;95.00;;;;;;3614621;39;20458;-42
2021/04/05 09:00:35;;;;;;;7.80;7.60;;;20.60;94.90;;;;;;3614963;39;20575;-42
2021/04/05 09:03:07;;;;;;;8.23;7.93;;;20.60;94.90;;;;;;3613651;39;20484;-42
2021/04/05 09:05:41;;;;;;;7.53;7.33;;;20.60;94.90;;;;;;3614740;39;20465;-42
2021/04/05 09:08:10;;;;;;;7.67;7.47;;;20.70;95.00;;;;;;3614378;39;20488;-41
2021/04/05 09:10:47;;;;;;;7.47;7.17;;;20.60;94.90;;;;;;3615070;39;20478;-42
2021/04/05 09:13:22;;;;;;;6.77;6.57;;;20.60;94.90;;;;;;3615869;39;20573;-41
2021/04/05 09:16:30;;;;;;;7.43;7.23;;;20.60;95.00;;;;;;3615131;39;20466;-42
2021/04/05 09:19:30;;;;;;;7.70;7.50;;;20.60;95.00;;;;;;3614836;39;20476;-42
2021/04/05 09:22:17;;;;;;;7.60;7.40;;;20.60;95.00;;;;;;3614053;39;20482;-41
2021/04/05 09:25:20;;;;;;;7.60;7.40;;;20.70;95.00;;;;;;3613763;39;20541;-42
2021/04/05 09:28:03;;;;;;;7.67;7.47;;;20.60;95.00;;;;;;3614294;39;20874;-42
2021/04/05 09:30:47;;;;;;;7.50;7.30;;;20.60;95.00;;;;;;3614701;39;20490;-42
2021/04/05 09:33:47;;;;;;;7.43;7.20;;;20.60;95.00;;;;;;3615180;39;20469;-41
2021/04/05 09:36:31;;;;;;;7.70;7.50;;;20.60;95.00;;;;;;3611848;39;20577;-42
2021/04/05 09:39:16;;;;;;;7.90;7.60;;;20.60;95.00;;;;;;3615472;39;20706;-41
2021/04/05 09:42:13;;;;;;;7.30;7.10;;;20.60;95.00;;;;;;3615521;39;20489;-41
2021/04/05 09:45:02;;;;;;;7.40;7.20;;;20.60;95.00;;;;;;3614278;39;20835;-42
2021/04/05 09:47:49;;;;;;;7.30;7.10;;;20.60;95.00;;;;;;3614753;39;20470;-42
2021/04/05 09:50:27;;;;;;;7.47;7.17;;;20.60;95.00;;;;;;3614878;39;20564;-42
2021/04/05 09:53:14;;;;;;;6.70;6.50;;;20.60;95.00;;;;;;3615715;39;20513;-42
2021/04/05 09:55:46;;;;;;;7.47;7.17;;;20.60;95.00;;;;;;3614664;39;20711;-42
2021/04/05 09:58:18;;;;;;;7.37;7.17;;;20.60;95.00;;;;;;3616331;39;20764;-41
2021/04/05 10:00:50;;;;;;;7.53;7.23;;;20.60;95.00;;;;;;3615976;39;20503;-41
2021/04/05 10:03:18;;;;;;;7.93;7.67;;;20.60;95.00;;;;;;3615259;39;20878;-42
2021/04/05 10:05:47;;;;;;;6.87;6.67;;;20.60;95.10;;;;;;3616260;39;20481;-42
2021/04/05 10:08:15;;;;;;;7.00;6.70;;;20.60;95.00;;;;;;3616626;39;20754;-42
2021/04/05 10:10:44;;;;;;;7.73;7.43;;;20.60;95.00;;;;;;3614398;39;20562;-42
2021/04/05 10:13:13;;;;;;;7.97;7.67;;;20.60;95.00;;;;;;3614523;39;20487;-41
2021/04/05 10:15:42;;;;;;;7.30;7.10;;;20.60;95.00;;;;;;3615290;39;20585;-42
2021/04/05 10:18:12;;;;;;;7.50;7.30;;;20.60;95.00;;;;;;3615224;39;20578;-41
2021/04/05 10:20:41;;;;;;;7.70;7.50;;;20.60;95.00;;;;;;3614367;39;20636;-42
2021/04/05 10:23:09;;;;;;;7.40;7.20;;;20.60;95.00;;;;;;3615350;39;20676;-42
2021/04/05 10:25:37;;;;;;;7.67;7.47;;;20.60;95.00;;;;;;3613800;39;20956;-42
2021/04/05 10:28:07;;;;;;;7.90;7.60;;;20.60;95.00;;;;;;3615245;39;20473;-42
2021/04/05 10:30:35;;;;;;;7.80;7.50;;;20.60;95.00;;;;;;3614887;39;20509;-42
2021/04/05 10:33:04;;;;;;;8.00;7.70;;;20.60;95.00;;;;;;3614500;39;20585;-42
2021/04/05 10:35:35;;;;;;;8.33;8.03;;;20.60;95.00;;;;;;3613296;39;20512;-42
2021/04/05 10:38:04;;;;;;;7.90;7.70;;;20.60;95.00;;;;;;3617315;39;20489;-42
2021/04/05 10:40:31;;;;;;;7.63;7.43;;;20.60;95.00;;;;;;3615839;39;20778;-41
2021/04/05 10:43:07;;;;;;;7.97;7.67;;;20.60;95.00;;;;;;3616383;39;20504;-41
2021/04/05 10:45:38;;;;;;;7.93;7.60;;;20.60;95.00;;;;;;3614429;39;20496;-42
2021/04/05 10:48:08;;;;;;;7.90;7.70;;;20.60;95.00;;;;;;3613335;39;20776;-42
2021/04/05 10:50:44;;;;;;;7.70;7.50;;;20.60;95.00;;;;;;3614196;39;20481;-42
2021/04/05 10:53:14;;;;;;;8.13;7.83;;;20.60;95.00;;;;;;3615646;39;20480;-42
2021/04/05 10:55:45;;;;;;;7.90;7.60;;;20.60;95.00;;;;;;3615053;39;20497;-42
2021/04/05 10:58:18;;;;;;;8.23;7.93;;;20.60;95.00;;;;;;3615171;39;20790;-42
2021/04/05 11:00:51;;;;;;;8.17;7.97;;;20.60;95.00;;;;;;3615768;39;20497;-42
2021/04/05 11:03:21;;;;;;;7.87;7.60;;;20.60;95.00;;;;;;3615836;39;20482;-41
2021/04/05 11:05:51;;;;;;;7.73;7.53;;;20.60;95.00;;;;;;3615300;39;20830;-41
2021/04/05 11:08:22;;;;;;;8.07;7.83;;;20.60;95.00;;;;;;3613991;39;20554;-41
2021/04/05 11:10:49;;;;;;;7.67;7.37;;;20.60;95.00;;;;;;3614700;39;20953;-42
2021/04/05 11:13:21;;;;;;;8.10;7.80;;;20.60;95.00;;;;;;3615295;39;20835;-42
2021/04/05 11:15:49;;;;;;;8.67;8.37;;;20.60;95.00;;;;;;3614094;39;20501;-42
2021/04/05 11:18:19;;;;;;;8.00;7.80;;;20.60;95.00;;;;;;3616815;39;20469;-42
2021/04/05 11:20:50;;;;;;;8.10;7.90;;;20.60;95.00;;;;;;3616771;39;20492;-41
2021/04/05 11:23:19;;;;;;;8.10;7.80;;;20.60;95.00;;;;;;3617401;39;20488;-42
2021/04/05 11:25:48;;;;;;;7.83;7.60;;;20.60;95.00;;;;;;3616165;39;20497;-41
2021/04/05 11:28:20;;;;;;;7.90;7.70;;;20.60;95.00;;;;;;3612653;39;20542;-42
2021/04/05 11:30:49;;;;;;;7.10;6.90;;;20.60;95.00;;;;;;3615133;39;20692;-42
2021/04/05 11:33:24;;;;;;;7.90;7.70;;;20.60;95.00;;;;;;3614459;39;20509;-42
2021/04/05 11:35:53;;;;;;;7.67;7.47;;;20.60;95.00;;;;;;3615182;39;20473;-42
2021/04/05 11:38:21;;;;;;;7.27;7.07;;;20.60;95.00;;;;;;3615099;39;20481;-41
2021/04/05 11:40:54;;;;;;;8.13;7.83;;;20.60;95.00;;;;;;3615561;39;20529;-41
2021/04/05 11:43:28;;;;;;;7.70;7.50;;;20.60;95.00;;;;;;3615473;39;20611;-41
2021/04/05 11:46:00;;;;;;;7.67;7.43;;;20.60;95.00;;;;;;3614369;39;20526;-41
2021/04/05 11:48:28;;;;;;;8.40;8.10;;;20.60;95.00;;;;;;3614418;39;20476;-41
2021/04/05 11:50:55;;;;;;;8.53;8.30;;;20.60;95.00;;;;;;3613646;39;20529;-42
2021/04/05 11:53:27;;;;;;;8.47;8.17;;;20.60;95.00;;;;;;3615206;39;20469;-42
2021/04/05 11:56:10;;;;;;;8.27;8.07;;;20.60;95.00;;;;;;3616123;39;20470;-42
2021/04/05 11:58:42;;;;;;;8.40;8.10;;;20.60;95.30;;;;;;3605587;39;20491;-42
2021/04/05 12:01:15;;;;;;;8.30;8.00;;;20.60;95.00;;;;;;3604604;39;20538;-41
2021/04/05 12:03:50;;;;;;;8.57;8.27;;;20.60;95.00;;;;;;3603504;39;20495;-41
2021/04/05 12:06:21;;;;;;;8.27;7.97;;;20.60;95.00;;;;;;3601546;39;20840;-41
2021/04/05 12:08:52;;;;;;;8.53;8.33;;;20.60;95.00;;;;;;3603178;39;20846;-42
2021/04/05 12:11:21;;;;;;;8.30;8.00;;;20.60;95.00;;;;;;3604631;39;20476;-42
2021/04/05 12:13:54;;;;;;;8.70;8.40;;;20.60;95.00;;;;;;3601851;39;20604;-42
2021/04/05 12:16:26;;;;;;;8.27;8.00;;;20.60;95.00;;;;;;3599535;39;20576;-42
2021/04/05 12:18:54;;;;;;;8.43;8.13;;;20.60;95.00;;;;;;3604265;39;20493;-42
2021/04/05 12:21:26;;;;;;;8.17;7.87;;;20.60;95.00;;;;;;3614250;39;20496;-42
2021/04/05 12:23:59;;;;;;;8.20;7.90;;;20.60;95.00;;;;;;3615009;39;20882;-41
2021/04/05 12:26:26;;;;;;;7.70;7.50;;;20.60;95.00;;;;;;3613781;39;20517;-41
2021/04/05 12:29:01;;;;;;;7.77;7.57;;;20.60;95.00;;;;;;3613947;39;20488;-41
2021/04/05 12:31:28;;;;;;;7.67;7.47;;;20.60;95.00;;;;;;3611382;39;20858;-42
2021/04/05 12:33:57;;;;;;;7.70;7.50;;;20.60;95.00;;;;;;3613209;39;20478;-41
2021/04/05 12:36:32;;;;;;;7.33;7.03;;;20.60;95.00;;;;;;3614619;39;20768;-41
2021/04/05 12:39:00;;;;;;;8.07;7.80;;;20.60;95.00;;;;;;3614318;39;20477;-42
2021/04/05 12:41:33;;;;;;;7.80;7.60;;;20.60;95.00;;;;;;3614964;39;20573;-42
2021/04/05 12:44:02;;;;;;;8.30;8.00;;;20.60;95.00;;;;;;3615830;39;21088;-42
2021/04/05 12:46:29;;;;;;;8.33;8.13;;;20.60;95.30;;;;;;3613048;39;20489;-42
2021/04/05 12:48:59;;;;;;;8.00;7.70;;;20.60;95.00;;;;;;3613883;39;20554;-41
2021/04/05 12:51:27;;;;;;;8.53;8.23;;;20.60;95.00;;;;;;3613461;39;20524;-42
2021/04/05 12:54:01;;;;;;;7.90;7.70;;;20.60;95.00;;;;;;3614902;39;20474;-42
2021/04/05 12:56:37;;;;;;;8.47;8.17;;;20.60;95.00;;;;;;3615505;39;20478;-42
2021/04/05 12:59:05;;;;;;;8.30;8.00;;;20.60;95.00;;;;;;3615019;39;20844;-42
2021/04/05 13:01:36;;;;;;;7.60;7.40;;;20.60;95.00;;;;;;3614651;39;20915;-42
2021/04/05 13:04:05;;;;;;;8.83;8.50;;;20.60;95.00;;;;;;3615053;39;20794;-41
2021/04/05 13:06:41;;;;;;;7.90;7.70;;;20.60;95.00;;;;;;3615175;39;20533;-41
2021/04/05 13:09:12;;;;;;;8.07;7.77;;;20.60;95.00;;;;;;3614413;39;20497;-42
2021/04/05 13:11:45;;;;;;;9.00;8.70;;;20.60;95.00;;;;;;3615526;39;20468;-41
2021/04/05 13:14:18;;;;;;;8.60;8.30;;;20.60;95.00;;;;;;3614536;39;20732;-42